sensor_id;sensor_type;location;lat;lon;timestamp;P1;durP1;ratioP1;P2;durP2;ratioP2
781;SDS011;374;52.568;13.402;2023-07-09T00:00:52;6.33;;;5.10;;
781;SDS011;374;52.568;13.402;2023-07-09T00:03:18;5.50;;;5.10;;
781;SDS011;374;52.568;13.402;2023-07-09T00:05:45;5.80;;;4.97;;
781;SDS011;374;52.568;13.402;2023-07-09T00:08:18;5.50;;;5.03;;
781;SDS011;374;52.568;13.402;2023-07-09T00:10:52;4.50;;;4.10;;
781;SDS011;374;52.568;13.402;2023-07-09T00:13:19;4.57;;;4.13;;
781;SDS011;374;52.568;13.402;2023-07-09T00:15:45;11.03;;;4.73;;
781;SDS011;374;52.568;13.402;2023-07-09T00:18:10;4.53;;;4.17;;
781;SDS011;374;52.568;13.402;2023-07-09T00:20:36;4.43;;;4.13;;
781;SDS011;374;52.568;13.402;2023-07-09T00:23:01;6.20;;;5.43;;
781;SDS011;374;52.568;13.402;2023-07-09T00:25:29;8.00;;;5.00;;
781;SDS011;374;52.568;13.402;2023-07-09T00:27:55;5.50;;;5.00;;
781;SDS011;374;52.568;13.402;2023-07-09T00:30:22;6.00;;;4.80;;
781;SDS011;374;52.568;13.402;2023-07-09T00:32:49;5.20;;;4.70;;
781;SDS011;374;52.568;13.402;2023-07-09T00:35:14;6.13;;;5.53;;
781;SDS011;374;52.568;13.402;2023-07-09T00:37:41;5.00;;;4.50;;
781;SDS011;374;52.568;13.402;2023-07-09T00:40:16;5.10;;;4.70;;
781;SDS011;374;52.568;13.402;2023-07-09T00:42:47;6.10;;;5.60;;
781;SDS011;374;52.568;13.402;2023-07-09T00:45:21;5.33;;;4.83;;
781;SDS011;374;52.568;13.402;2023-07-09T00:48:02;5.23;;;4.73;;
781;SDS011;374;52.568;13.402;2023-07-09T00:50:42;7.23;;;4.70;;
781;SDS011;374;52.568;13.402;2023-07-09T00:53:21;5.23;;;4.73;;
781;SDS011;374;52.568;13.402;2023-07-09T00:56:08;4.63;;;4.23;;
781;SDS011;374;52.568;13.402;2023-07-09T00:58:36;5.50;;;5.00;;
781;SDS011;374;52.568;13.402;2023-07-09T01:01:04;7.90;;;5.30;;
781;SDS011;374;52.568;13.402;2023-07-09T01:03:36;5.13;;;4.73;;
781;SDS011;374;52.568;13.402;2023-07-09T01:06:25;8.20;;;5.63;;
781;SDS011;374;52.568;13.402;2023-07-09T01:08:57;5.57;;;5.10;;
781;SDS011;374;52.568;13.402;2023-07-09T01:11:23;5.00;;;4.60;;
781;SDS011;374;52.568;13.402;2023-07-09T01:13:49;5.53;;;4.67;;
781;SDS011;374;52.568;13.402;2023-07-09T01:16:18;5.57;;;4.97;;
781;SDS011;374;52.568;13.402;2023-07-09T01:18:48;5.60;;;5.10;;
781;SDS011;374;52.568;13.402;2023-07-09T01:21:14;5.90;;;5.37;;
781;SDS011;374;52.568;13.402;2023-07-09T01:23:43;5.37;;;4.97;;
781;SDS011;374;52.568;13.402;2023-07-09T01:26:10;6.07;;;5.47;;
781;SDS011;374;52.568;13.402;2023-07-09T01:28:37;7.43;;;6.67;;
781;SDS011;374;52.568;13.402;2023-07-09T01:31:06;5.70;;;5.10;;
781;SDS011;374;52.568;13.402;2023-07-09T01:33:32;6.80;;;5.40;;
781;SDS011;374;52.568;13.402;2023-07-09T01:35:58;5.90;;;5.30;;
781;SDS011;374;52.568;13.402;2023-07-09T01:38:28;5.40;;;5.00;;
781;SDS011;374;52.568;13.402;2023-07-09T01:40:55;6.17;;;5.67;;
781;SDS011;374;52.568;13.402;2023-07-09T01:43:21;5.90;;;4.70;;
781;SDS011;374;52.568;13.402;2023-07-09T01:45:47;5.70;;;5.03;;
781;SDS011;374;52.568;13.402;2023-07-09T01:48:15;6.33;;;5.73;;
781;SDS011;374;52.568;13.402;2023-07-09T01:50:41;5.87;;;5.30;;
781;SDS011;374;52.568;13.402;2023-07-09T01:53:08;5.87;;;5.30;;
781;SDS011;374;52.568;13.402;2023-07-09T01:55:36;4.80;;;4.43;;
781;SDS011;374;52.568;13.402;2023-07-09T01:58:02;5.73;;;5.23;;
781;SDS011;374;52.568;13.402;2023-07-09T02:00:31;6.30;;;5.70;;
781;SDS011;374;52.568;13.402;2023-07-09T02:02:59;5.50;;;5.00;;
781;SDS011;374;52.568;13.402;2023-07-09T02:05:26;6.10;;;5.60;;
781;SDS011;374;52.568;13.402;2023-07-09T02:07:52;6.47;;;5.67;;
781;SDS011;374;52.568;13.402;2023-07-09T02:10:18;5.83;;;5.30;;
781;SDS011;374;52.568;13.402;2023-07-09T02:12:44;6.43;;;5.23;;
781;SDS011;374;52.568;13.402;2023-07-09T02:15:10;5.80;;;5.30;;
781;SDS011;374;52.568;13.402;2023-07-09T02:17:36;6.23;;;5.67;;
781;SDS011;374;52.568;13.402;2023-07-09T02:20:02;6.77;;;5.50;;
781;SDS011;374;52.568;13.402;2023-07-09T02:22:29;5.70;;;5.20;;
781;SDS011;374;52.568;13.402;2023-07-09T02:24:54;7.20;;;5.43;;
781;SDS011;374;52.568;13.402;2023-07-09T02:27:20;6.10;;;5.50;;
781;SDS011;374;52.568;13.402;2023-07-09T02:29:47;5.57;;;5.07;;
781;SDS011;374;52.568;13.402;2023-07-09T02:32:15;5.73;;;5.23;;
781;SDS011;374;52.568;13.402;2023-07-09T02:34:43;5.87;;;5.37;;
781;SDS011;374;52.568;13.402;2023-07-09T02:37:13;6.80;;;5.27;;
781;SDS011;374;52.568;13.402;2023-07-09T02:39:40;6.20;;;5.60;;
781;SDS011;374;52.568;13.402;2023-07-09T02:42:08;10.47;;;5.30;;
781;SDS011;374;52.568;13.402;2023-07-09T02:44:36;5.83;;;4.90;;
781;SDS011;374;52.568;13.402;2023-07-09T02:47:01;5.70;;;5.20;;
781;SDS011;374;52.568;13.402;2023-07-09T02:49:27;5.20;;;4.73;;
781;SDS011;374;52.568;13.402;2023-07-09T02:51:53;5.30;;;4.80;;
781;SDS011;374;52.568;13.402;2023-07-09T02:54:18;6.10;;;4.43;;
781;SDS011;374;52.568;13.402;2023-07-09T02:56:44;5.40;;;5.00;;
781;SDS011;374;52.568;13.402;2023-07-09T02:59:09;6.00;;;5.40;;
781;SDS011;374;52.568;13.402;2023-07-09T03:01:36;5.20;;;4.80;;
781;SDS011;374;52.568;13.402;2023-07-09T03:04:02;7.53;;;5.93;;
781;SDS011;374;52.568;13.402;2023-07-09T03:06:28;6.27;;;4.93;;
781;SDS011;374;52.568;13.402;2023-07-09T03:08:54;6.40;;;5.73;;
781;SDS011;374;52.568;13.402;2023-07-09T03:11:20;5.50;;;5.00;;
781;SDS011;374;52.568;13.402;2023-07-09T03:13:47;5.63;;;4.93;;
781;SDS011;374;52.568;13.402;2023-07-09T03:16:13;5.77;;;5.30;;
781;SDS011;374;52.568;13.402;2023-07-09T03:18:39;7.47;;;5.60;;
781;SDS011;374;52.568;13.402;2023-07-09T03:21:05;5.70;;;5.10;;
781;SDS011;374;52.568;13.402;2023-07-09T03:23:30;5.30;;;4.90;;
781;SDS011;374;52.568;13.402;2023-07-09T03:25:56;5.83;;;5.17;;
781;SDS011;374;52.568;13.402;2023-07-09T03:28:22;7.57;;;5.33;;
781;SDS011;374;52.568;13.402;2023-07-09T03:30:48;5.30;;;4.80;;
781;SDS011;374;52.568;13.402;2023-07-09T03:33:15;5.87;;;5.43;;
781;SDS011;374;52.568;13.402;2023-07-09T03:35:42;5.53;;;5.00;;
781;SDS011;374;52.568;13.402;2023-07-09T03:38:08;6.73;;;6.03;;
781;SDS011;374;52.568;13.402;2023-07-09T03:40:35;5.60;;;5.10;;
781;SDS011;374;52.568;13.402;2023-07-09T03:43:02;6.60;;;5.20;;
781;SDS011;374;52.568;13.402;2023-07-09T03:45:28;6.10;;;5.00;;
781;SDS011;374;52.568;13.402;2023-07-09T03:47:54;6.17;;;5.67;;
781;SDS011;374;52.568;13.402;2023-07-09T03:50:21;6.57;;;5.90;;
781;SDS011;374;52.568;13.402;2023-07-09T03:52:46;5.60;;;5.20;;
781;SDS011;374;52.568;13.402;2023-07-09T03:55:12;5.47;;;4.93;;
781;SDS011;374;52.568;13.402;2023-07-09T03:57:39;7.60;;;5.30;;
781;SDS011;374;52.568;13.402;2023-07-09T04:00:05;7.87;;;6.20;;
781;SDS011;374;52.568;13.402;2023-07-09T04:02:35;5.93;;;5.40;;
781;SDS011;374;52.568;13.402;2023-07-09T04:05:01;8.00;;;6.13;;
781;SDS011;374;52.568;13.402;2023-07-09T04:07:26;6.87;;;6.27;;
781;SDS011;374;52.568;13.402;2023-07-09T04:09:52;6.00;;;5.50;;
781;SDS011;374;52.568;13.402;2023-07-09T04:12:17;5.53;;;5.10;;
781;SDS011;374;52.568;13.402;2023-07-09T04:14:43;6.73;;;5.73;;
781;SDS011;374;52.568;13.402;2023-07-09T04:17:08;6.50;;;6.00;;
781;SDS011;374;52.568;13.402;2023-07-09T04:19:34;6.80;;;6.20;;
781;SDS011;374;52.568;13.402;2023-07-09T04:21:59;6.30;;;5.53;;
781;SDS011;374;52.568;13.402;2023-07-09T04:24:25;6.10;;;5.70;;
781;SDS011;374;52.568;13.402;2023-07-09T04:26:52;6.93;;;6.23;;
781;SDS011;374;52.568;13.402;2023-07-09T04:29:21;5.43;;;5.03;;
781;SDS011;374;52.568;13.402;2023-07-09T04:31:49;7.03;;;6.33;;
781;SDS011;374;52.568;13.402;2023-07-09T04:34:15;9.00;;;6.50;;
781;SDS011;374;52.568;13.402;2023-07-09T04:36:40;6.57;;;5.90;;
781;SDS011;374;52.568;13.402;2023-07-09T04:39:06;6.60;;;6.07;;
781;SDS011;374;52.568;13.402;2023-07-09T04:41:31;6.87;;;6.27;;
781;SDS011;374;52.568;13.402;2023-07-09T04:43:57;7.27;;;6.37;;
781;SDS011;374;52.568;13.402;2023-07-09T04:46:23;6.80;;;6.30;;
781;SDS011;374;52.568;13.402;2023-07-09T04:48:49;6.23;;;5.63;;
781;SDS011;374;52.568;13.402;2023-07-09T04:51:14;6.57;;;5.97;;
781;SDS011;374;52.568;13.402;2023-07-09T04:53:39;6.47;;;5.90;;
781;SDS011;374;52.568;13.402;2023-07-09T04:56:05;6.43;;;5.87;;
781;SDS011;374;52.568;13.402;2023-07-09T04:58:31;6.63;;;6.03;;
781;SDS011;374;52.568;13.402;2023-07-09T05:00:57;6.67;;;6.07;;
781;SDS011;374;52.568;13.402;2023-07-09T05:03:23;6.40;;;5.80;;
781;SDS011;374;52.568;13.402;2023-07-09T05:05:49;6.10;;;5.60;;
781;SDS011;374;52.568;13.402;2023-07-09T05:08:15;5.43;;;4.97;;
781;SDS011;374;52.568;13.402;2023-07-09T05:10:45;6.20;;;5.60;;
781;SDS011;374;52.568;13.402;2023-07-09T05:13:14;6.10;;;5.50;;
781;SDS011;374;52.568;13.402;2023-07-09T05:15:42;6.20;;;5.70;;
781;SDS011;374;52.568;13.402;2023-07-09T05:18:09;5.60;;;5.20;;
781;SDS011;374;52.568;13.402;2023-07-09T05:20:35;6.30;;;5.70;;
781;SDS011;374;52.568;13.402;2023-07-09T05:23:00;7.07;;;5.80;;
781;SDS011;374;52.568;13.402;2023-07-09T05:25:26;6.17;;;5.53;;
781;SDS011;374;52.568;13.402;2023-07-09T05:27:51;6.40;;;5.90;;
781;SDS011;374;52.568;13.402;2023-07-09T05:30:18;5.70;;;5.30;;
781;SDS011;374;52.568;13.402;2023-07-09T05:32:44;6.10;;;5.47;;
781;SDS011;374;52.568;13.402;2023-07-09T05:35:10;6.00;;;5.60;;
781;SDS011;374;52.568;13.402;2023-07-09T05:37:36;6.00;;;5.50;;
781;SDS011;374;52.568;13.402;2023-07-09T05:40:02;5.87;;;5.30;;
781;SDS011;374;52.568;13.402;2023-07-09T05:42:30;6.30;;;5.70;;
781;SDS011;374;52.568;13.402;2023-07-09T05:44:56;6.20;;;5.60;;
781;SDS011;374;52.568;13.402;2023-07-09T05:47:22;6.30;;;5.63;;
781;SDS011;374;52.568;13.402;2023-07-09T05:49:47;5.90;;;5.40;;
781;SDS011;374;52.568;13.402;2023-07-09T05:52:15;6.10;;;5.60;;
781;SDS011;374;52.568;13.402;2023-07-09T05:54:44;6.20;;;5.70;;
781;SDS011;374;52.568;13.402;2023-07-09T05:57:10;5.87;;;5.40;;
781;SDS011;374;52.568;13.402;2023-07-09T05:59:36;5.63;;;5.13;;
781;SDS011;374;52.568;13.402;2023-07-09T06:02:01;6.50;;;5.90;;
781;SDS011;374;52.568;13.402;2023-07-09T06:04:28;6.40;;;5.77;;
781;SDS011;374;52.568;13.402;2023-07-09T06:06:55;6.30;;;5.80;;
781;SDS011;374;52.568;13.402;2023-07-09T06:09:21;6.00;;;5.40;;
781;SDS011;374;52.568;13.402;2023-07-09T06:11:47;5.80;;;5.40;;
781;SDS011;374;52.568;13.402;2023-07-09T06:14:13;11.23;;;5.20;;
781;SDS011;374;52.568;13.402;2023-07-09T06:16:38;6.03;;;5.53;;
781;SDS011;374;52.568;13.402;2023-07-09T06:19:04;6.80;;;6.20;;
781;SDS011;374;52.568;13.402;2023-07-09T06:21:29;6.20;;;5.70;;
781;SDS011;374;52.568;13.402;2023-07-09T06:23:55;6.30;;;5.80;;
781;SDS011;374;52.568;13.402;2023-07-09T06:26:20;6.40;;;5.80;;
781;SDS011;374;52.568;13.402;2023-07-09T06:28:46;5.63;;;5.20;;
781;SDS011;374;52.568;13.402;2023-07-09T06:31:11;5.60;;;5.20;;
781;SDS011;374;52.568;13.402;2023-07-09T06:33:37;7.60;;;6.30;;
781;SDS011;374;52.568;13.402;2023-07-09T06:36:03;5.53;;;5.10;;
781;SDS011;374;52.568;13.402;2023-07-09T06:38:29;5.73;;;5.23;;
781;SDS011;374;52.568;13.402;2023-07-09T06:40:55;7.93;;;7.33;;
781;SDS011;374;52.568;13.402;2023-07-09T06:43:21;7.73;;;5.70;;
781;SDS011;374;52.568;13.402;2023-07-09T06:45:47;6.13;;;5.60;;
781;SDS011;374;52.568;13.402;2023-07-09T06:48:17;6.27;;;5.77;;
781;SDS011;374;52.568;13.402;2023-07-09T06:50:43;6.33;;;5.77;;
781;SDS011;374;52.568;13.402;2023-07-09T06:53:09;6.57;;;6.07;;
781;SDS011;374;52.568;13.402;2023-07-09T06:55:35;5.97;;;5.37;;
781;SDS011;374;52.568;13.402;2023-07-09T06:58:00;6.10;;;5.50;;
781;SDS011;374;52.568;13.402;2023-07-09T07:00:26;5.93;;;5.43;;
781;SDS011;374;52.568;13.402;2023-07-09T07:02:51;6.90;;;6.10;;
781;SDS011;374;52.568;13.402;2023-07-09T07:05:17;5.87;;;5.27;;
781;SDS011;374;52.568;13.402;2023-07-09T07:07:43;5.70;;;5.20;;
781;SDS011;374;52.568;13.402;2023-07-09T07:10:08;5.30;;;4.90;;
781;SDS011;374;52.568;13.402;2023-07-09T07:12:40;5.40;;;5.00;;
781;SDS011;374;52.568;13.402;2023-07-09T07:15:12;6.60;;;6.00;;
781;SDS011;374;52.568;13.402;2023-07-09T07:17:39;7.50;;;5.37;;
781;SDS011;374;52.568;13.402;2023-07-09T07:20:05;4.73;;;4.40;;
781;SDS011;374;52.568;13.402;2023-07-09T07:22:32;5.57;;;5.07;;
781;SDS011;374;52.568;13.402;2023-07-09T07:24:57;6.37;;;5.63;;
781;SDS011;374;52.568;13.402;2023-07-09T07:27:23;6.30;;;5.80;;
781;SDS011;374;52.568;13.402;2023-07-09T07:29:48;5.30;;;4.90;;
781;SDS011;374;52.568;13.402;2023-07-09T07:32:14;9.47;;;4.83;;
781;SDS011;374;52.568;13.402;2023-07-09T07:34:39;6.67;;;6.00;;
781;SDS011;374;52.568;13.402;2023-07-09T07:37:04;6.43;;;5.90;;
781;SDS011;374;52.568;13.402;2023-07-09T07:39:30;5.80;;;5.30;;
781;SDS011;374;52.568;13.402;2023-07-09T07:41:56;6.07;;;5.57;;
781;SDS011;374;52.568;13.402;2023-07-09T07:44:22;7.67;;;5.57;;
781;SDS011;374;52.568;13.402;2023-07-09T07:46:48;5.73;;;5.23;;
781;SDS011;374;52.568;13.402;2023-07-09T07:49:13;6.07;;;5.67;;
781;SDS011;374;52.568;13.402;2023-07-09T07:51:39;8.03;;;6.10;;
781;SDS011;374;52.568;13.402;2023-07-09T07:54:04;4.90;;;4.60;;
781;SDS011;374;52.568;13.402;2023-07-09T07:56:31;6.13;;;5.73;;
781;SDS011;374;52.568;13.402;2023-07-09T07:58:57;6.23;;;5.73;;
781;SDS011;374;52.568;13.402;2023-07-09T08:01:22;7.50;;;6.43;;
781;SDS011;374;52.568;13.402;2023-07-09T08:03:48;5.90;;;5.40;;
781;SDS011;374;52.568;13.402;2023-07-09T08:06:13;6.27;;;5.67;;
781;SDS011;374;52.568;13.402;2023-07-09T08:08:39;5.93;;;5.43;;
781;SDS011;374;52.568;13.402;2023-07-09T08:11:05;6.33;;;5.83;;
781;SDS011;374;52.568;13.402;2023-07-09T08:13:35;6.47;;;5.97;;
781;SDS011;374;52.568;13.402;2023-07-09T08:16:02;6.67;;;5.83;;
781;SDS011;374;52.568;13.402;2023-07-09T08:18:29;5.93;;;5.40;;
781;SDS011;374;52.568;13.402;2023-07-09T08:20:54;5.73;;;5.27;;
781;SDS011;374;52.568;13.402;2023-07-09T08:23:20;7.03;;;6.07;;
781;SDS011;374;52.568;13.402;2023-07-09T08:25:56;6.70;;;6.17;;
781;SDS011;374;52.568;13.402;2023-07-09T08:28:23;6.57;;;6.07;;
781;SDS011;374;52.568;13.402;2023-07-09T08:30:52;6.07;;;5.67;;
781;SDS011;374;52.568;13.402;2023-07-09T08:33:18;6.10;;;5.70;;
781;SDS011;374;52.568;13.402;2023-07-09T08:35:44;6.37;;;5.83;;
781;SDS011;374;52.568;13.402;2023-07-09T08:38:09;5.93;;;5.53;;
781;SDS011;374;52.568;13.402;2023-07-09T08:40:41;7.03;;;6.43;;
781;SDS011;374;52.568;13.402;2023-07-09T08:49:29;6.40;;;5.90;;
781;SDS011;374;52.568;13.402;2023-07-09T08:52:09;7.63;;;7.03;;
781;SDS011;374;52.568;13.402;2023-07-09T08:54:47;6.33;;;5.83;;
781;SDS011;374;52.568;13.402;2023-07-09T08:57:19;7.00;;;5.73;;
781;SDS011;374;52.568;13.402;2023-07-09T08:59:56;6.60;;;6.10;;
781;SDS011;374;52.568;13.402;2023-07-09T09:02:34;6.57;;;5.97;;
781;SDS011;374;52.568;13.402;2023-07-09T09:05:04;7.10;;;5.97;;
781;SDS011;374;52.568;13.402;2023-07-09T09:07:43;6.80;;;6.30;;
781;SDS011;374;52.568;13.402;2023-07-09T09:10:17;7.23;;;6.20;;
781;SDS011;374;52.568;13.402;2023-07-09T09:12:54;6.37;;;5.80;;
781;SDS011;374;52.568;13.402;2023-07-09T09:15:27;7.10;;;6.50;;
781;SDS011;374;52.568;13.402;2023-07-09T09:17:55;6.33;;;5.80;;
781;SDS011;374;52.568;13.402;2023-07-09T09:20:24;7.90;;;7.20;;
781;SDS011;374;52.568;13.402;2023-07-09T09:25:42;6.80;;;6.20;;
781;SDS011;374;52.568;13.402;2023-07-09T09:28:12;6.30;;;5.87;;
781;SDS011;374;52.568;13.402;2023-07-09T09:30:39;5.87;;;5.47;;
781;SDS011;374;52.568;13.402;2023-07-09T09:33:08;7.50;;;6.03;;
781;SDS011;374;52.568;13.402;2023-07-09T09:35:40;6.90;;;6.30;;
781;SDS011;374;52.568;13.402;2023-07-09T09:38:16;5.73;;;5.23;;
781;SDS011;374;52.568;13.402;2023-07-09T09:40:43;6.13;;;5.63;;
781;SDS011;374;52.568;13.402;2023-07-09T09:43:19;5.93;;;5.53;;
781;SDS011;374;52.568;13.402;2023-07-09T09:45:47;5.53;;;5.20;;
781;SDS011;374;52.568;13.402;2023-07-09T09:48:18;6.40;;;5.80;;
781;SDS011;374;52.568;13.402;2023-07-09T09:50:55;6.13;;;5.53;;
781;SDS011;374;52.568;13.402;2023-07-09T09:53:26;6.07;;;5.47;;
781;SDS011;374;52.568;13.402;2023-07-09T09:55:54;5.80;;;5.40;;
781;SDS011;374;52.568;13.402;2023-07-09T09:58:25;5.60;;;5.20;;
781;SDS011;374;52.568;13.402;2023-07-09T10:00:54;6.50;;;6.00;;
781;SDS011;374;52.568;13.402;2023-07-09T10:03:31;6.70;;;6.20;;
781;SDS011;374;52.568;13.402;2023-07-09T10:05:59;6.73;;;6.23;;
781;SDS011;374;52.568;13.402;2023-07-09T10:08:38;6.53;;;6.03;;
781;SDS011;374;52.568;13.402;2023-07-09T10:11:16;6.33;;;5.83;;
781;SDS011;374;52.568;13.402;2023-07-09T10:13:53;6.57;;;6.00;;
781;SDS011;374;52.568;13.402;2023-07-09T10:16:33;6.10;;;5.70;;
781;SDS011;374;52.568;13.402;2023-07-09T10:27:39;6.80;;;6.10;;
781;SDS011;374;52.568;13.402;2023-07-09T10:33:08;6.67;;;6.10;;
781;SDS011;374;52.568;13.402;2023-07-09T10:35:55;6.70;;;6.10;;
781;SDS011;374;52.568;13.402;2023-07-09T10:41:29;7.80;;;6.20;;
781;SDS011;374;52.568;13.402;2023-07-09T10:44:01;6.13;;;5.73;;
781;SDS011;374;52.568;13.402;2023-07-09T10:46:39;6.20;;;5.60;;
781;SDS011;374;52.568;13.402;2023-07-09T10:49:09;6.57;;;5.90;;
781;SDS011;374;52.568;13.402;2023-07-09T10:51:48;6.60;;;6.10;;
781;SDS011;374;52.568;13.402;2023-07-09T11:03:50;7.30;;;6.70;;
781;SDS011;374;52.568;13.402;2023-07-09T11:06:24;6.77;;;6.17;;
781;SDS011;374;52.568;13.402;2023-07-09T11:09:38;6.60;;;6.10;;
781;SDS011;374;52.568;13.402;2023-07-09T11:12:17;6.43;;;5.90;;
781;SDS011;374;52.568;13.402;2023-07-09T11:15:20;6.57;;;5.97;;
781;SDS011;374;52.568;13.402;2023-07-09T11:18:00;7.00;;;6.50;;
781;SDS011;374;52.568;13.402;2023-07-09T11:20:32;6.90;;;6.40;;
781;SDS011;374;52.568;13.402;2023-07-09T11:26:15;7.43;;;6.83;;
781;SDS011;374;52.568;13.402;2023-07-09T11:29:18;7.07;;;6.57;;
781;SDS011;374;52.568;13.402;2023-07-09T11:31:54;6.83;;;6.30;;
781;SDS011;374;52.568;13.402;2023-07-09T11:34:20;6.50;;;6.07;;
781;SDS011;374;52.568;13.402;2023-07-09T11:39:50;7.60;;;6.90;;
781;SDS011;374;52.568;13.402;2023-07-09T11:48:29;6.97;;;6.37;;
781;SDS011;374;52.568;13.402;2023-07-09T11:50:59;5.83;;;5.30;;
781;SDS011;374;52.568;13.402;2023-07-09T11:56:18;5.90;;;5.40;;
781;SDS011;374;52.568;13.402;2023-07-09T11:58:51;6.60;;;6.00;;
781;SDS011;374;52.568;13.402;2023-07-09T12:01:36;6.90;;;6.30;;
781;SDS011;374;52.568;13.402;2023-07-09T12:04:11;6.63;;;6.07;;
781;SDS011;374;52.568;13.402;2023-07-09T12:06:42;6.53;;;5.93;;
781;SDS011;374;52.568;13.402;2023-07-09T12:09:14;7.50;;;6.50;;
781;SDS011;374;52.568;13.402;2023-07-09T12:11:45;6.20;;;5.70;;
781;SDS011;374;52.568;13.402;2023-07-09T12:14:14;7.33;;;6.67;;
781;SDS011;374;52.568;13.402;2023-07-09T12:17:02;6.40;;;5.80;;
781;SDS011;374;52.568;13.402;2023-07-09T12:23:27;6.57;;;6.07;;
781;SDS011;374;52.568;13.402;2023-07-09T12:25:54;7.17;;;6.47;;
781;SDS011;374;52.568;13.402;2023-07-09T12:28:23;7.07;;;6.47;;
781;SDS011;374;52.568;13.402;2023-07-09T12:30:51;6.50;;;5.90;;
781;SDS011;374;52.568;13.402;2023-07-09T12:33:19;6.70;;;6.10;;
781;SDS011;374;52.568;13.402;2023-07-09T12:35:54;6.37;;;5.93;;
781;SDS011;374;52.568;13.402;2023-07-09T12:38:23;6.60;;;6.20;;
781;SDS011;374;52.568;13.402;2023-07-09T12:40:51;6.33;;;5.83;;
781;SDS011;374;52.568;13.402;2023-07-09T12:43:28;7.17;;;6.67;;
781;SDS011;374;52.568;13.402;2023-07-09T12:46:08;6.23;;;5.73;;
781;SDS011;374;52.568;13.402;2023-07-09T12:51:40;7.23;;;6.63;;
781;SDS011;374;52.568;13.402;2023-07-09T12:56:54;7.23;;;6.63;;
781;SDS011;374;52.568;13.402;2023-07-09T12:59:36;7.33;;;6.73;;
781;SDS011;374;52.568;13.402;2023-07-09T13:02:27;6.90;;;6.40;;
781;SDS011;374;52.568;13.402;2023-07-09T13:05:03;6.93;;;6.33;;
781;SDS011;374;52.568;13.402;2023-07-09T13:08:02;6.50;;;5.63;;
781;SDS011;374;52.568;13.402;2023-07-09T13:10:38;7.10;;;6.60;;
781;SDS011;374;52.568;13.402;2023-07-09T13:13:18;6.53;;;6.13;;
781;SDS011;374;52.568;13.402;2023-07-09T13:15:52;6.83;;;6.33;;
781;SDS011;374;52.568;13.402;2023-07-09T13:18:25;6.83;;;6.33;;
781;SDS011;374;52.568;13.402;2023-07-09T13:20:51;6.50;;;6.00;;
781;SDS011;374;52.568;13.402;2023-07-09T13:23:20;7.23;;;6.60;;
781;SDS011;374;52.568;13.402;2023-07-09T13:25:55;6.70;;;6.20;;
781;SDS011;374;52.568;13.402;2023-07-09T13:28:27;6.70;;;6.20;;
781;SDS011;374;52.568;13.402;2023-07-09T13:31:17;7.20;;;6.70;;
781;SDS011;374;52.568;13.402;2023-07-09T13:33:50;6.93;;;6.40;;
781;SDS011;374;52.568;13.402;2023-07-09T13:36:19;7.00;;;6.30;;
781;SDS011;374;52.568;13.402;2023-07-09T13:38:49;6.77;;;6.27;;
781;SDS011;374;52.568;13.402;2023-07-09T13:41:27;6.40;;;5.90;;
781;SDS011;374;52.568;13.402;2023-07-09T13:43:53;6.87;;;6.30;;
781;SDS011;374;52.568;13.402;2023-07-09T13:46:19;7.50;;;7.00;;
781;SDS011;374;52.568;13.402;2023-07-09T13:48:44;7.10;;;6.53;;
781;SDS011;374;52.568;13.402;2023-07-09T13:51:16;6.57;;;6.07;;
781;SDS011;374;52.568;13.402;2023-07-09T13:53:44;6.90;;;6.40;;
781;SDS011;374;52.568;13.402;2023-07-09T13:56:37;7.27;;;6.73;;
781;SDS011;374;52.568;13.402;2023-07-09T13:59:04;7.27;;;6.67;;
781;SDS011;374;52.568;13.402;2023-07-09T14:01:36;7.53;;;6.80;;
781;SDS011;374;52.568;13.402;2023-07-09T14:04:01;7.80;;;7.10;;
781;SDS011;374;52.568;13.402;2023-07-09T14:06:27;7.67;;;7.13;;
781;SDS011;374;52.568;13.402;2023-07-09T14:08:52;7.13;;;6.57;;
781;SDS011;374;52.568;13.402;2023-07-09T14:11:18;7.00;;;6.50;;
781;SDS011;374;52.568;13.402;2023-07-09T14:13:44;7.07;;;6.50;;
781;SDS011;374;52.568;13.402;2023-07-09T14:16:10;6.87;;;6.27;;
781;SDS011;374;52.568;13.402;2023-07-09T14:18:36;7.70;;;7.00;;
781;SDS011;374;52.568;13.402;2023-07-09T14:21:10;7.07;;;6.57;;
781;SDS011;374;52.568;13.402;2023-07-09T14:23:43;7.40;;;6.33;;
781;SDS011;374;52.568;13.402;2023-07-09T14:26:09;7.27;;;6.77;;
781;SDS011;374;52.568;13.402;2023-07-09T14:28:35;6.40;;;5.90;;
781;SDS011;374;52.568;13.402;2023-07-09T14:31:03;7.03;;;6.43;;
781;SDS011;374;52.568;13.402;2023-07-09T14:33:33;7.03;;;6.53;;
781;SDS011;374;52.568;13.402;2023-07-09T14:35:59;7.80;;;7.00;;
781;SDS011;374;52.568;13.402;2023-07-09T14:38:24;7.47;;;6.53;;
781;SDS011;374;52.568;13.402;2023-07-09T14:40:52;7.03;;;6.43;;
781;SDS011;374;52.568;13.402;2023-07-09T14:43:20;7.07;;;6.43;;
781;SDS011;374;52.568;13.402;2023-07-09T14:45:47;7.20;;;6.60;;
781;SDS011;374;52.568;13.402;2023-07-09T14:48:17;6.50;;;6.07;;
781;SDS011;374;52.568;13.402;2023-07-09T14:50:44;7.53;;;7.00;;
781;SDS011;374;52.568;13.402;2023-07-09T14:53:12;7.60;;;7.00;;
781;SDS011;374;52.568;13.402;2023-07-09T14:55:39;7.40;;;6.80;;
781;SDS011;374;52.568;13.402;2023-07-09T14:58:08;6.30;;;5.90;;
781;SDS011;374;52.568;13.402;2023-07-09T15:00:39;6.93;;;6.43;;
781;SDS011;374;52.568;13.402;2023-07-09T15:03:08;7.50;;;6.90;;
781;SDS011;374;52.568;13.402;2023-07-09T15:05:35;6.87;;;6.27;;
781;SDS011;374;52.568;13.402;2023-07-09T15:08:05;7.23;;;6.73;;
781;SDS011;374;52.568;13.402;2023-07-09T15:10:36;11.37;;;10.37;;
781;SDS011;374;52.568;13.402;2023-07-09T15:13:04;10.73;;;9.83;;
781;SDS011;374;52.568;13.402;2023-07-09T15:15:30;8.97;;;8.13;;
781;SDS011;374;52.568;13.402;2023-07-09T15:17:57;8.80;;;8.00;;
781;SDS011;374;52.568;13.402;2023-07-09T15:20:25;6.47;;;5.97;;
781;SDS011;374;52.568;13.402;2023-07-09T15:22:52;7.80;;;6.13;;
781;SDS011;374;52.568;13.402;2023-07-09T15:25:22;6.70;;;6.20;;
781;SDS011;374;52.568;13.402;2023-07-09T15:27:49;7.20;;;6.63;;
781;SDS011;374;52.568;13.402;2023-07-09T15:32:46;7.30;;;6.70;;
781;SDS011;374;52.568;13.402;2023-07-09T15:35:12;7.67;;;6.97;;
781;SDS011;374;52.568;13.402;2023-07-09T15:37:39;7.53;;;7.03;;
781;SDS011;374;52.568;13.402;2023-07-09T15:40:13;7.30;;;6.80;;
781;SDS011;374;52.568;13.402;2023-07-09T15:42:40;8.10;;;7.50;;
781;SDS011;374;52.568;13.402;2023-07-09T15:45:05;7.57;;;6.90;;
781;SDS011;374;52.568;13.402;2023-07-09T15:47:31;7.37;;;6.80;;
781;SDS011;374;52.568;13.402;2023-07-09T15:49:57;7.30;;;6.80;;
781;SDS011;374;52.568;13.402;2023-07-09T15:52:23;8.13;;;7.53;;
781;SDS011;374;52.568;13.402;2023-07-09T15:54:48;7.47;;;6.87;;
781;SDS011;374;52.568;13.402;2023-07-09T15:57:14;7.43;;;6.83;;
781;SDS011;374;52.568;13.402;2023-07-09T15:59:41;7.53;;;6.90;;
781;SDS011;374;52.568;13.402;2023-07-09T16:02:11;6.57;;;6.00;;
781;SDS011;374;52.568;13.402;2023-07-09T16:04:38;7.67;;;7.07;;
781;SDS011;374;52.568;13.402;2023-07-09T16:07:06;7.40;;;6.73;;
781;SDS011;374;52.568;13.402;2023-07-09T16:09:31;8.17;;;7.37;;
781;SDS011;374;52.568;13.402;2023-07-09T16:11:57;7.57;;;6.97;;
781;SDS011;374;52.568;13.402;2023-07-09T16:14:30;7.57;;;6.97;;
781;SDS011;374;52.568;13.402;2023-07-09T16:16:57;7.33;;;6.73;;
781;SDS011;374;52.568;13.402;2023-07-09T16:19:26;7.40;;;6.80;;
781;SDS011;374;52.568;13.402;2023-07-09T16:22:00;8.10;;;7.50;;
781;SDS011;374;52.568;13.402;2023-07-09T16:24:30;7.77;;;7.07;;
781;SDS011;374;52.568;13.402;2023-07-09T16:26:57;6.83;;;6.33;;
781;SDS011;374;52.568;13.402;2023-07-09T16:29:27;7.37;;;6.77;;
781;SDS011;374;52.568;13.402;2023-07-09T16:31:57;7.47;;;6.80;;
781;SDS011;374;52.568;13.402;2023-07-09T16:34:24;8.13;;;7.37;;
781;SDS011;374;52.568;13.402;2023-07-09T16:36:51;6.83;;;6.23;;
781;SDS011;374;52.568;13.402;2023-07-09T16:39:27;7.80;;;7.20;;
781;SDS011;374;52.568;13.402;2023-07-09T16:41:55;7.30;;;6.70;;